createdAt,value
2018-10-15T00:05:12.347Z,15.20
2018-10-15T00:07:41.022Z,14.53
2018-10-15T00:10:10.057Z,14.18
2018-10-15T00:12:38.664Z,14.57
2018-10-15T00:15:30.961Z,14.40
2018-10-15T00:17:59.695Z,16.12
2018-10-15T00:20:28.219Z,15.33
2018-10-15T00:22:56.773Z,15.53
2018-10-15T00:25:25.818Z,15.10
2018-10-15T00:27:54.370Z,16.60
2018-10-15T00:30:22.924Z,15.30
2018-10-15T00:32:51.508Z,15.25
2018-10-15T00:35:20.067Z,15.63
2018-10-15T00:37:48.751Z,16.50
2018-10-15T00:40:17.554Z,16.30
2018-10-15T00:42:46.107Z,16.00
2018-10-15T00:50:11.378Z,13.67
2018-10-15T00:52:40.358Z,13.20
2018-10-15T00:55:09.754Z,14.40
2018-10-15T00:57:38.912Z,14.40
2018-10-15T01:00:09.319Z,13.70
2018-10-15T01:02:37.902Z,13.90
2018-10-15T01:05:07.553Z,15.60
2018-10-15T01:07:36.466Z,14.00
2018-10-15T01:10:05.567Z,14.80
2018-10-15T01:12:34.974Z,16.05
2018-10-15T01:15:03.502Z,18.40
2018-10-15T01:17:32.040Z,16.02
2018-10-15T01:20:00.613Z,16.70
2018-10-15T01:22:29.118Z,17.82
2018-10-15T01:24:57.639Z,16.50
2018-10-15T01:27:26.210Z,17.92
2018-10-15T01:29:54.719Z,17.43
2018-10-15T01:32:23.266Z,16.96
2018-10-15T01:34:52.338Z,16.87
2018-10-15T01:37:20.905Z,17.17
2018-10-15T01:39:49.472Z,16.40
2018-10-15T01:42:18.002Z,16.67
2018-10-15T01:44:46.518Z,16.77
2018-10-15T01:52:09.575Z,16.10
2018-10-15T01:54:39.270Z,15.67
2018-10-15T01:57:07.860Z,17.63
2018-10-15T01:59:36.425Z,16.33
2018-10-15T02:02:05.473Z,16.67
2018-10-15T02:04:34.536Z,16.48
2018-10-15T02:07:03.375Z,15.83
2018-10-15T02:09:32.335Z,16.20
2018-10-15T02:12:00.929Z,17.27
2018-10-15T02:14:30.100Z,16.60
2018-10-15T02:16:58.652Z,17.87
2018-10-15T02:19:27.334Z,16.43
2018-10-15T02:21:55.921Z,18.17
2018-10-15T02:24:25.403Z,18.23
2018-10-15T02:26:53.982Z,17.63
2018-10-15T02:29:22.519Z,18.00
2018-10-15T02:31:51.171Z,19.00
2018-10-15T02:34:19.718Z,16.80
2018-10-15T02:36:48.284Z,17.60
2018-10-15T02:39:17.511Z,16.70
2018-10-15T02:41:46.051Z,17.20
2018-10-15T02:49:14.684Z,16.70
2018-10-15T02:51:43.180Z,17.07
2018-10-15T02:54:11.700Z,17.83
2018-10-15T02:56:40.610Z,16.70
2018-10-15T02:59:09.143Z,16.37
2018-10-15T03:01:37.694Z,16.10
2018-10-15T03:04:06.414Z,17.17
2018-10-15T03:06:34.943Z,16.20
2018-10-15T03:09:03.597Z,18.25
2018-10-15T03:11:32.775Z,16.43
2018-10-15T03:14:01.334Z,17.30
2018-10-15T03:16:29.891Z,17.10
2018-10-15T03:18:58.790Z,17.00
2018-10-15T03:21:27.340Z,17.73
2018-10-15T03:23:55.913Z,17.97
2018-10-15T03:26:24.638Z,18.00
2018-10-15T03:28:53.539Z,16.47
2018-10-15T03:31:22.079Z,16.37
2018-10-15T03:33:50.699Z,16.10
2018-10-15T03:36:19.215Z,16.07
2018-10-15T03:38:47.799Z,15.80
2018-10-15T03:41:18.738Z,18.52
2018-10-15T03:43:47.445Z,17.63
2018-10-15T03:46:17.471Z,18.23
2018-10-15T03:48:46.007Z,18.03
2018-10-15T03:56:12.782Z,16.93
2018-10-15T03:58:41.297Z,16.63
2018-10-15T04:01:09.860Z,17.53
2018-10-15T04:03:38.816Z,15.40
2018-10-15T04:06:07.333Z,16.67
2018-10-15T04:08:35.954Z,16.27
2018-10-15T04:11:04.561Z,16.52
2018-10-15T04:13:33.937Z,16.50
2018-10-15T04:16:02.678Z,16.23
2018-10-15T04:18:31.215Z,16.70
2018-10-15T04:20:59.715Z,15.30
2018-10-15T04:23:28.231Z,16.80
2018-10-15T04:25:57.086Z,15.93
2018-10-15T04:28:25.731Z,18.10
2018-10-15T04:30:54.543Z,18.20
2018-10-15T04:33:23.380Z,17.00
2018-10-15T04:35:51.879Z,17.30
2018-10-15T04:38:20.397Z,15.63
2018-10-15T04:40:48.918Z,16.83
2018-10-15T04:43:17.444Z,16.02
2018-10-15T04:45:45.961Z,16.97
2018-10-15T04:53:11.280Z,17.00
2018-10-15T04:55:39.812Z,17.27
2018-10-15T04:58:08.302Z,15.90
2018-10-15T05:00:36.836Z,17.00
2018-10-15T05:03:05.347Z,15.93
2018-10-15T05:05:33.902Z,16.85
2018-10-15T05:08:02.495Z,18.10
2018-10-15T05:10:31.170Z,16.40
2018-10-15T05:12:59.694Z,19.03
2018-10-15T05:15:28.891Z,18.75
2018-10-15T05:17:57.390Z,21.27
2018-10-15T05:20:25.893Z,21.10
2018-10-15T05:22:54.845Z,23.60
2018-10-15T05:25:23.355Z,28.40
2018-10-15T05:27:51.915Z,26.97
2018-10-15T05:30:20.605Z,22.40
2018-10-15T05:32:48.990Z,19.40
2018-10-15T05:35:17.480Z,17.60
2018-10-15T05:37:46.495Z,16.50
2018-10-15T05:45:12.296Z,16.43
2018-10-15T05:47:40.987Z,16.20
2018-10-15T05:50:11.243Z,17.10
2018-10-15T05:52:39.769Z,16.70
2018-10-15T05:55:09.226Z,17.85
2018-10-15T05:57:37.700Z,18.00
2018-10-15T06:00:07.539Z,21.27
2018-10-15T06:02:36.032Z,21.07
2018-10-15T06:05:05.087Z,18.17
2018-10-15T06:07:33.898Z,18.85
2018-10-15T06:10:02.415Z,18.23
2018-10-15T06:12:30.961Z,16.50
2018-10-15T06:14:59.478Z,17.33
2018-10-15T06:17:28.299Z,16.33
2018-10-15T06:19:56.780Z,18.07
2018-10-15T06:22:25.707Z,17.70
2018-10-15T06:24:54.224Z,18.90
2018-10-15T06:27:22.738Z,17.97
2018-10-15T06:29:51.494Z,17.43
2018-10-15T06:32:20.004Z,18.27
2018-10-15T06:34:48.483Z,17.60
2018-10-15T06:37:17.686Z,17.40
2018-10-15T06:39:46.338Z,17.27
2018-10-15T06:47:16.102Z,16.20
2018-10-15T06:49:44.604Z,15.97
2018-10-15T06:52:13.111Z,17.43
2018-10-15T06:54:41.619Z,16.97
2018-10-15T06:57:10.191Z,16.30
2018-10-15T06:59:40.014Z,17.70
2018-10-15T07:02:11.419Z,15.78
2018-10-15T07:04:40.294Z,16.60
2018-10-15T07:07:08.806Z,16.37
2018-10-15T07:09:37.939Z,17.35
2018-10-15T07:12:06.578Z,18.53
2018-10-15T07:14:35.098Z,18.63
2018-10-15T07:17:03.607Z,17.60
2018-10-15T07:19:32.606Z,18.00
2018-10-15T07:22:01.169Z,16.40
2018-10-15T07:24:30.378Z,17.53
2018-10-15T07:26:59.863Z,15.17
2018-10-15T07:29:28.379Z,16.37
2018-10-15T07:31:56.902Z,13.30
2018-10-15T07:34:25.496Z,14.33
2018-10-15T07:36:53.918Z,12.67
2018-10-15T07:39:22.503Z,11.63
2018-10-15T07:41:50.973Z,10.40
2018-10-15T07:44:19.520Z,10.78
2018-10-15T07:46:48.055Z,10.80
2018-10-15T07:49:17.343Z,9.43
2018-10-15T07:51:45.855Z,9.43
2018-10-15T07:59:16.016Z,9.30
2018-10-15T08:01:44.606Z,9.48
2018-10-15T08:04:13.225Z,9.27
2018-10-15T08:06:41.759Z,9.20
2018-10-15T08:09:10.482Z,7.83
2018-10-15T08:11:39.014Z,8.40
2018-10-15T08:14:12.680Z,8.00
2018-10-15T08:16:41.259Z,8.80
2018-10-15T08:19:09.755Z,8.13
2018-10-15T08:21:38.410Z,7.93
2018-10-15T08:24:06.943Z,8.20
2018-10-15T08:26:35.458Z,8.70
2018-10-15T08:29:04.019Z,8.60
2018-10-15T08:31:32.658Z,8.65
2018-10-15T08:34:01.215Z,8.20
2018-10-15T08:36:29.738Z,7.20
2018-10-15T08:38:58.254Z,7.23
2018-10-15T08:41:27.173Z,7.25
2018-10-15T08:43:55.675Z,7.20
2018-10-15T08:46:24.272Z,7.23
2018-10-15T08:48:52.745Z,7.33
2018-10-15T08:51:21.278Z,7.28
2018-10-15T08:53:50.903Z,7.10
2018-10-15T08:56:19.466Z,7.30
2018-10-15T08:58:47.982Z,7.67
2018-10-15T09:06:11.708Z,7.03
2018-10-15T09:08:40.283Z,6.60
2018-10-15T09:11:08.714Z,6.20
2018-10-15T09:13:37.224Z,6.80
2018-10-15T09:16:05.789Z,7.07
2018-10-15T09:18:34.287Z,6.60
2018-10-15T09:21:02.866Z,6.80
2018-10-15T09:23:32.010Z,6.57
2018-10-15T09:26:00.542Z,6.40
2018-10-15T09:28:29.822Z,6.00
2018-10-15T09:30:58.381Z,6.80
2018-10-15T09:33:27.294Z,6.63
2018-10-15T09:35:55.794Z,7.33
2018-10-15T09:38:24.361Z,6.97
2018-10-15T09:40:52.856Z,7.13
2018-10-15T09:43:21.902Z,6.58
2018-10-15T09:45:50.482Z,6.80
2018-10-15T09:48:18.926Z,6.70
2018-10-15T09:50:47.981Z,6.65
2018-10-15T09:53:17.364Z,5.93
2018-10-15T09:55:45.847Z,6.17
2018-10-15T10:03:21.379Z,7.73
2018-10-15T10:05:49.922Z,7.43
2018-10-15T10:08:18.460Z,7.23
2018-10-15T10:10:47.819Z,6.53
2018-10-15T10:13:16.716Z,6.70
2018-10-15T10:15:45.202Z,7.53
2018-10-15T10:23:10.288Z,9.50
2018-10-15T10:25:39.487Z,9.10
2018-10-15T10:28:08.102Z,9.60
2018-10-15T10:30:38.271Z,9.17
2018-10-15T10:33:06.849Z,9.30
2018-10-15T10:36:12.320Z,9.90
2018-10-15T10:38:45.507Z,9.30
2018-10-15T10:46:14.555Z,9.57
2018-10-15T10:48:43.082Z,9.57
2018-10-15T10:51:11.567Z,8.33
2018-10-15T10:53:40.142Z,8.63
2018-10-15T10:56:08.649Z,9.77
2018-10-15T10:58:37.217Z,9.00
2018-10-15T11:01:06.094Z,9.97
2018-10-15T11:03:34.619Z,9.27
2018-10-15T11:06:03.383Z,9.50
2018-10-15T11:08:32.354Z,9.63
2018-10-15T11:11:00.854Z,9.37
2018-10-15T11:13:29.426Z,9.53
2018-10-15T11:15:58.025Z,8.80
2018-10-15T11:18:26.600Z,8.10
2018-10-15T11:20:55.250Z,9.27
2018-10-15T11:23:24.270Z,8.63
2018-10-15T11:25:53.195Z,8.63
2018-10-15T11:28:21.730Z,9.45
2018-10-15T11:30:50.328Z,8.90
2018-10-15T11:33:18.830Z,8.60
2018-10-15T11:35:47.320Z,8.53
2018-10-15T11:43:09.649Z,8.33
2018-10-15T11:45:38.106Z,8.40
2018-10-15T11:48:07.211Z,8.83
2018-10-15T11:50:35.795Z,8.15
2018-10-15T11:53:04.462Z,8.87
2018-10-15T11:55:32.964Z,9.35
2018-10-15T11:58:01.613Z,8.43
2018-10-15T12:00:30.154Z,8.30
2018-10-15T12:02:58.643Z,8.03
2018-10-15T12:05:27.179Z,7.90
2018-10-15T12:07:55.732Z,8.07
2018-10-15T12:10:24.982Z,7.37
2018-10-15T12:12:53.747Z,8.60
2018-10-15T12:15:22.265Z,8.33
2018-10-15T12:17:50.767Z,8.17
2018-10-15T12:20:19.435Z,8.00
2018-10-15T12:22:48.076Z,7.93
2018-10-15T12:25:18.008Z,9.33
2018-10-15T12:27:47.576Z,9.38
2018-10-15T12:30:17.388Z,8.30
2018-10-15T12:32:45.893Z,10.57
2018-10-15T12:45:11.244Z,9.60
2018-10-15T12:47:39.889Z,8.30
2018-10-15T12:50:09.763Z,8.30
2018-10-15T12:52:38.865Z,8.50
2018-10-15T12:55:08.433Z,8.25
2018-10-15T12:57:37.054Z,8.07
2018-10-15T13:05:15.341Z,8.30
2018-10-15T13:07:43.943Z,8.60
2018-10-15T13:10:12.666Z,9.18
2018-10-15T13:12:41.199Z,8.80
2018-10-15T13:15:09.802Z,8.23
2018-10-15T13:17:38.310Z,8.93
2018-10-15T13:20:07.395Z,9.07
2018-10-15T13:22:35.929Z,8.90
2018-10-15T13:25:04.675Z,8.58
2018-10-15T13:27:33.767Z,9.60
2018-10-15T13:30:03.552Z,9.50
2018-10-15T13:32:33.178Z,9.50
2018-10-15T13:35:01.793Z,8.87
2018-10-15T13:37:34.397Z,9.20
2018-10-15T13:40:03.370Z,9.60
2018-10-15T13:42:36.656Z,9.60
2018-10-15T13:45:07.285Z,10.10
2018-10-15T13:47:36.267Z,10.43
2018-10-15T13:50:06.328Z,14.30
2018-10-15T13:52:34.903Z,10.18
2018-10-15T13:55:03.474Z,10.15
2018-10-15T13:57:32.196Z,11.20
2018-10-15T14:00:10.662Z,10.60
2018-10-15T14:02:39.485Z,10.23
2018-10-15T14:05:08.219Z,10.10
2018-10-15T14:07:36.729Z,10.00
2018-10-15T14:10:06.607Z,10.00
2018-10-15T14:12:35.123Z,10.30
2018-10-15T14:15:03.663Z,10.60
2018-10-15T14:17:32.540Z,10.88
2018-10-15T14:20:01.022Z,10.53
2018-10-15T14:22:30.198Z,10.10
2018-10-15T14:24:59.203Z,11.00
2018-10-15T14:27:28.353Z,11.50
2018-10-15T14:29:56.958Z,11.30
2018-10-15T14:32:25.798Z,11.43
2018-10-15T14:34:54.751Z,11.30
2018-10-15T14:37:23.276Z,11.53
2018-10-15T14:39:52.196Z,11.93
2018-10-15T14:42:20.903Z,12.37
2018-10-15T14:44:49.605Z,11.73
2018-10-15T14:47:18.118Z,12.33
2018-10-15T14:49:46.647Z,11.47
2018-10-15T14:57:12.911Z,11.80
2018-10-15T14:59:43.093Z,11.83
2018-10-15T15:02:11.811Z,13.83
2018-10-15T15:04:41.017Z,11.47
2018-10-15T15:07:09.470Z,13.10
2018-10-15T15:09:49.181Z,12.93
2018-10-15T15:12:28.950Z,12.10
2018-10-15T15:14:57.494Z,12.68
2018-10-15T15:17:26.003Z,13.93
2018-10-15T15:19:54.516Z,22.53
2018-10-15T15:22:23.671Z,17.98
2018-10-15T15:24:52.219Z,15.30
2018-10-15T15:27:20.731Z,15.72
2018-10-15T15:29:49.397Z,18.10
2018-10-15T15:32:18.537Z,15.10
2018-10-15T15:34:47.634Z,14.33
2018-10-15T15:42:14.615Z,13.87
2018-10-15T15:44:43.788Z,13.40
2018-10-15T15:47:15.440Z,13.30
2018-10-15T15:49:44.022Z,14.23
2018-10-15T15:52:12.570Z,14.23
2018-10-15T15:54:41.160Z,14.60
2018-10-15T15:57:10.442Z,13.50
2018-10-15T16:07:11.295Z,13.27
2018-10-15T16:09:49.781Z,12.70
2018-10-15T16:12:19.214Z,14.00
2018-10-15T16:14:47.827Z,14.00
2018-10-15T16:17:18.120Z,14.10
2018-10-15T16:19:46.870Z,14.00
2018-10-15T16:32:08.847Z,15.20
2018-10-15T16:34:37.455Z,14.33
2018-10-15T16:37:06.582Z,14.80
2018-10-15T16:39:35.286Z,14.23
2018-10-15T16:42:05.030Z,14.53
2018-10-15T16:44:33.612Z,13.25
2018-10-15T16:47:02.203Z,15.13
2018-10-15T16:49:30.921Z,16.33
2018-10-15T16:51:59.699Z,15.37
2018-10-15T16:54:28.418Z,15.27
2018-10-15T16:56:56.979Z,15.30
2018-10-15T16:59:25.487Z,13.98
2018-10-15T17:01:54.032Z,15.37
2018-10-15T17:04:22.589Z,15.23
2018-10-15T17:06:51.171Z,15.07
2018-10-15T17:09:20.300Z,15.50
2018-10-15T17:11:48.843Z,15.87
2018-10-15T17:14:17.441Z,14.80
2018-10-15T17:16:46.739Z,16.10
2018-10-15T17:24:12.823Z,17.30
2018-10-15T17:26:41.918Z,17.20
2018-10-15T17:29:10.654Z,16.27
2018-10-15T17:31:39.229Z,17.00
2018-10-15T17:34:07.778Z,16.53
2018-10-15T17:36:36.454Z,18.00
2018-10-15T17:39:08.906Z,17.87
2018-10-15T17:41:37.569Z,17.75
2018-10-15T17:44:06.697Z,17.83
2018-10-15T17:46:35.288Z,17.15
2018-10-15T17:49:04.605Z,17.40
2018-10-15T17:51:33.127Z,17.75
2018-10-15T17:54:01.706Z,18.20
2018-10-15T17:56:30.198Z,18.67
2018-10-15T17:58:58.842Z,18.05
2018-10-15T18:01:27.758Z,16.40
2018-10-15T18:03:56.328Z,20.10
2018-10-15T18:06:26.239Z,18.40
2018-10-15T18:08:54.927Z,18.47
2018-10-15T18:11:23.640Z,17.87
2018-10-15T18:13:52.280Z,19.13
2018-10-15T18:16:20.889Z,18.95
2018-10-15T18:18:49.481Z,18.97
2018-10-15T18:21:18.703Z,18.00
2018-10-15T18:23:47.415Z,18.60
2018-10-15T18:31:09.734Z,19.30
2018-10-15T18:33:38.434Z,19.50
2018-10-15T18:36:18.273Z,19.30
2018-10-15T18:38:47.311Z,20.43
2018-10-15T18:46:11.617Z,20.53
2018-10-15T18:48:40.231Z,22.70
2018-10-15T18:51:08.861Z,25.70
2018-10-15T18:53:42.035Z,28.33
2018-10-15T18:56:10.613Z,28.03
2018-10-15T18:58:39.126Z,31.90
2018-10-15T19:01:08.128Z,29.00
2018-10-15T19:03:37.442Z,25.30
2018-10-15T19:06:06.146Z,25.07
2018-10-15T19:08:37.283Z,27.17
2018-10-15T19:11:06.374Z,29.43
2018-10-15T19:13:34.973Z,32.30
2018-10-15T19:16:03.738Z,31.65
2018-10-15T19:18:32.380Z,33.00
2018-10-15T19:21:00.950Z,29.90
2018-10-15T19:23:30.033Z,28.70
2018-10-15T19:25:59.525Z,28.05
2018-10-15T19:28:28.049Z,28.87
2018-10-15T19:30:57.172Z,25.37
2018-10-15T19:33:26.673Z,26.10
2018-10-15T19:35:55.201Z,26.47
2018-10-15T19:38:23.978Z,25.80
2018-10-15T19:40:52.586Z,26.07
2018-10-15T19:43:21.950Z,26.35
2018-10-15T19:45:50.837Z,25.17
2018-10-15T19:48:19.530Z,31.47
2018-10-15T19:50:48.250Z,56.87
2018-10-15T19:53:18.276Z,45.83
2018-10-15T19:55:46.961Z,42.40
2018-10-15T20:08:07.047Z,26.00
2018-10-15T20:10:37.724Z,26.70
2018-10-15T20:13:06.363Z,30.20
2018-10-15T20:15:35.047Z,33.13
2018-10-15T20:18:03.631Z,36.40
2018-10-15T20:20:32.592Z,34.60
2018-10-15T20:23:03.902Z,33.17
2018-10-15T20:25:32.598Z,30.40
2018-10-15T20:28:01.215Z,29.00
2018-10-15T20:30:31.663Z,30.17
2018-10-15T20:33:01.655Z,29.83
2018-10-15T20:35:30.564Z,28.47
2018-10-15T20:38:00.018Z,28.00
2018-10-15T20:40:28.783Z,28.83
2018-10-15T20:42:57.359Z,27.37
2018-10-15T20:45:26.467Z,26.93
2018-10-15T20:47:55.034Z,25.27
2018-10-15T20:50:23.639Z,27.05
2018-10-15T20:52:52.178Z,27.27
2018-10-15T20:55:20.860Z,28.35
2018-10-15T20:57:49.552Z,25.13
2018-10-15T21:00:18.359Z,24.87
2018-10-15T21:02:46.942Z,24.90
2018-10-15T21:10:09.231Z,25.97
2018-10-15T21:12:38.207Z,27.43
2018-10-15T21:15:07.370Z,27.20
2018-10-15T21:17:36.210Z,26.63
2018-10-15T21:20:05.148Z,24.93
2018-10-15T21:22:33.798Z,26.35
2018-10-15T21:25:02.411Z,27.33
2018-10-15T21:27:31.044Z,27.40
2018-10-15T21:29:59.687Z,27.93
2018-10-15T21:32:28.389Z,25.68
2018-10-15T21:34:56.936Z,25.33
2018-10-15T21:37:25.580Z,25.27
2018-10-15T21:39:54.525Z,24.87
2018-10-15T21:42:23.203Z,26.03
2018-10-15T21:44:51.771Z,25.03
2018-10-15T21:47:20.857Z,25.37
2018-10-15T21:49:49.447Z,24.43
2018-10-15T21:52:18.734Z,25.35
2018-10-15T21:54:47.366Z,26.50
2018-10-15T21:57:18.804Z,24.57
2018-10-15T21:59:47.334Z,24.33
2018-10-15T22:02:17.754Z,26.70
2018-10-15T22:04:46.260Z,27.47
2018-10-15T22:12:09.248Z,30.53
2018-10-15T22:14:37.738Z,28.67
2018-10-15T22:17:06.745Z,25.97
2018-10-15T22:19:35.430Z,25.00
2018-10-15T22:22:03.959Z,25.97
2018-10-15T22:24:32.514Z,25.80
2018-10-15T22:27:01.111Z,27.00
2018-10-15T22:29:29.622Z,25.87
2018-10-15T22:31:58.122Z,24.43
2018-10-15T22:34:26.643Z,25.33
2018-10-15T22:36:55.126Z,25.50
2018-10-15T22:39:27.386Z,24.40
2018-10-15T22:41:56.383Z,25.23
2018-10-15T22:44:24.871Z,25.00
2018-10-15T22:46:53.354Z,24.13
2018-10-15T22:49:22.279Z,23.70
2018-10-15T22:51:50.805Z,24.47
2018-10-15T22:54:19.280Z,23.50
2018-10-15T22:56:47.783Z,24.30
2018-10-15T23:04:12.307Z,23.77
2018-10-15T23:06:41.769Z,23.40
2018-10-15T23:09:11.030Z,25.10
2018-10-15T23:11:39.602Z,24.03
2018-10-15T23:14:08.634Z,25.80
2018-10-15T23:16:37.338Z,23.90
2018-10-15T23:19:06.833Z,23.47
2018-10-15T23:21:35.778Z,23.03
2018-10-15T23:24:04.360Z,22.80
2018-10-15T23:26:34.043Z,21.77
2018-10-15T23:29:02.556Z,24.15
2018-10-15T23:31:31.050Z,25.63
2018-10-15T23:33:59.588Z,26.13
2018-10-15T23:36:28.186Z,25.67
2018-10-15T23:38:56.798Z,26.00
2018-10-15T23:41:25.934Z,25.33
2018-10-15T23:43:54.448Z,25.85
2018-10-15T23:46:22.926Z,24.03
2018-10-15T23:48:51.818Z,24.90
2018-10-15T23:51:20.674Z,25.17
2018-10-15T23:53:49.205Z,25.90
2018-10-15T23:56:18.866Z,24.98
2018-10-15T23:58:47.383Z,24.50
